sensor_id;sensor_type;location;lat;lon;timestamp;P1;durP1;ratioP1;P2;durP2;ratioP2
75793;SDS011;64418;47.536;19.074;2023-05-24T00:01:38;5.47;;;3.55;;
75793;SDS011;64418;47.536;19.074;2023-05-24T00:04:04;7.25;;;3.78;;
75793;SDS011;64418;47.536;19.074;2023-05-24T00:06:31;4.95;;;3.33;;
75793;SDS011;64418;47.536;19.074;2023-05-24T00:08:56;4.80;;;3.35;;
75793;SDS011;64418;47.536;19.074;2023-05-24T00:11:22;5.80;;;3.63;;
75793;SDS011;64418;47.536;19.074;2023-05-24T00:13:48;4.85;;;3.60;;
75793;SDS011;64418;47.536;19.074;2023-05-24T00:16:14;6.25;;;3.95;;
75793;SDS011;64418;47.536;19.074;2023-05-24T00:18:40;7.87;;;3.97;;
75793;SDS011;64418;47.536;19.074;2023-05-24T00:21:11;8.10;;;4.47;;
75793;SDS011;64418;47.536;19.074;2023-05-24T00:23:38;6.62;;;4.05;;
75793;SDS011;64418;47.536;19.074;2023-05-24T00:26:05;6.70;;;4.60;;
75793;SDS011;64418;47.536;19.074;2023-05-24T00:28:30;6.43;;;4.40;;
75793;SDS011;64418;47.536;19.074;2023-05-24T00:30:56;7.37;;;4.85;;
75793;SDS011;64418;47.536;19.074;2023-05-24T00:33:22;10.77;;;4.55;;
75793;SDS011;64418;47.536;19.074;2023-05-24T00:35:48;8.18;;;5.03;;
75793;SDS011;64418;47.536;19.074;2023-05-24T00:38:15;7.67;;;4.70;;
75793;SDS011;64418;47.536;19.074;2023-05-24T00:40:42;6.53;;;4.43;;
75793;SDS011;64418;47.536;19.074;2023-05-24T00:43:07;7.35;;;4.65;;
75793;SDS011;64418;47.536;19.074;2023-05-24T00:45:33;6.87;;;4.40;;
75793;SDS011;64418;47.536;19.074;2023-05-24T00:47:59;9.38;;;4.65;;
75793;SDS011;64418;47.536;19.074;2023-05-24T00:50:25;7.55;;;4.50;;
75793;SDS011;64418;47.536;19.074;2023-05-24T00:52:51;6.53;;;4.40;;
75793;SDS011;64418;47.536;19.074;2023-05-24T00:55:17;6.93;;;4.68;;
75793;SDS011;64418;47.536;19.074;2023-05-24T00:57:44;6.20;;;4.17;;
75793;SDS011;64418;47.536;19.074;2023-05-24T01:00:10;5.50;;;3.97;;
75793;SDS011;64418;47.536;19.074;2023-05-24T01:02:36;6.90;;;4.20;;
75793;SDS011;64418;47.536;19.074;2023-05-24T01:05:02;5.60;;;3.77;;
75793;SDS011;64418;47.536;19.074;2023-05-24T01:07:29;8.07;;;4.47;;
75793;SDS011;64418;47.536;19.074;2023-05-24T01:10:08;4.20;;;3.37;;
75793;SDS011;64418;47.536;19.074;2023-05-24T01:12:48;5.15;;;3.80;;
75793;SDS011;64418;47.536;19.074;2023-05-24T01:15:23;7.32;;;4.25;;
75793;SDS011;64418;47.536;19.074;2023-05-24T01:17:57;6.55;;;4.03;;
75793;SDS011;64418;47.536;19.074;2023-05-24T01:20:29;4.70;;;3.50;;
75793;SDS011;64418;47.536;19.074;2023-05-24T01:23:02;5.60;;;3.25;;
75793;SDS011;64418;47.536;19.074;2023-05-24T01:25:38;4.55;;;3.10;;
75793;SDS011;64418;47.536;19.074;2023-05-24T01:28:12;5.53;;;3.70;;
75793;SDS011;64418;47.536;19.074;2023-05-24T01:30:41;5.35;;;3.75;;
75793;SDS011;64418;47.536;19.074;2023-05-24T01:33:08;7.93;;;3.80;;
75793;SDS011;64418;47.536;19.074;2023-05-24T01:35:34;5.80;;;3.53;;
75793;SDS011;64418;47.536;19.074;2023-05-24T01:38:00;6.25;;;4.60;;
75793;SDS011;64418;47.536;19.074;2023-05-24T01:40:26;6.80;;;3.85;;
75793;SDS011;64418;47.536;19.074;2023-05-24T01:42:55;5.57;;;3.57;;
75793;SDS011;64418;47.536;19.074;2023-05-24T01:45:31;5.78;;;3.47;;
75793;SDS011;64418;47.536;19.074;2023-05-24T01:48:01;5.18;;;3.70;;
75793;SDS011;64418;47.536;19.074;2023-05-24T01:50:33;6.03;;;3.42;;
75793;SDS011;64418;47.536;19.074;2023-05-24T01:53:03;5.82;;;3.72;;
75793;SDS011;64418;47.536;19.074;2023-05-24T01:55:33;6.80;;;3.97;;
75793;SDS011;64418;47.536;19.074;2023-05-24T01:58:02;5.45;;;3.87;;
75793;SDS011;64418;47.536;19.074;2023-05-24T02:00:31;6.68;;;3.97;;
75793;SDS011;64418;47.536;19.074;2023-05-24T02:02:58;5.40;;;4.10;;
75793;SDS011;64418;47.536;19.074;2023-05-24T02:05:25;5.95;;;4.20;;
75793;SDS011;64418;47.536;19.074;2023-05-24T02:07:51;6.27;;;4.60;;
75793;SDS011;64418;47.536;19.074;2023-05-24T02:10:17;5.55;;;4.12;;
75793;SDS011;64418;47.536;19.074;2023-05-24T02:12:43;6.00;;;4.40;;
75793;SDS011;64418;47.536;19.074;2023-05-24T02:15:09;9.88;;;4.40;;
75793;SDS011;64418;47.536;19.074;2023-05-24T02:17:36;6.45;;;4.25;;
75793;SDS011;64418;47.536;19.074;2023-05-24T02:20:02;6.35;;;4.40;;
75793;SDS011;64418;47.536;19.074;2023-05-24T02:22:28;6.15;;;4.45;;
75793;SDS011;64418;47.536;19.074;2023-05-24T02:24:54;6.20;;;4.73;;
75793;SDS011;64418;47.536;19.074;2023-05-24T02:27:20;7.32;;;4.68;;
75793;SDS011;64418;47.536;19.074;2023-05-24T02:29:46;8.27;;;5.20;;
75793;SDS011;64418;47.536;19.074;2023-05-24T02:32:13;6.72;;;4.60;;
75793;SDS011;64418;47.536;19.074;2023-05-24T02:34:40;7.40;;;5.20;;
75793;SDS011;64418;47.536;19.074;2023-05-24T02:37:05;7.23;;;5.40;;
75793;SDS011;64418;47.536;19.074;2023-05-24T02:39:31;7.93;;;5.32;;
75793;SDS011;64418;47.536;19.074;2023-05-24T02:41:57;9.20;;;5.60;;
75793;SDS011;64418;47.536;19.074;2023-05-24T02:44:22;7.55;;;5.18;;
75793;SDS011;64418;47.536;19.074;2023-05-24T02:46:48;10.57;;;5.60;;
75793;SDS011;64418;47.536;19.074;2023-05-24T02:49:14;9.43;;;4.90;;
75793;SDS011;64418;47.536;19.074;2023-05-24T02:51:41;8.20;;;5.22;;
75793;SDS011;64418;47.536;19.074;2023-05-24T02:54:07;8.60;;;5.30;;
75793;SDS011;64418;47.536;19.074;2023-05-24T02:56:33;10.00;;;5.00;;
75793;SDS011;64418;47.536;19.074;2023-05-24T02:58:59;7.53;;;5.28;;
75793;SDS011;64418;47.536;19.074;2023-05-24T03:01:24;9.30;;;5.70;;
75793;SDS011;64418;47.536;19.074;2023-05-24T03:03:50;10.07;;;5.47;;
75793;SDS011;64418;47.536;19.074;2023-05-24T03:06:16;7.15;;;5.07;;
75793;SDS011;64418;47.536;19.074;2023-05-24T03:08:43;7.83;;;5.50;;
75793;SDS011;64418;47.536;19.074;2023-05-24T03:11:08;8.07;;;5.80;;
75793;SDS011;64418;47.536;19.074;2023-05-24T03:13:34;8.10;;;5.27;;
75793;SDS011;64418;47.536;19.074;2023-05-24T03:16:00;7.65;;;4.82;;
75793;SDS011;64418;47.536;19.074;2023-05-24T03:18:25;9.90;;;5.80;;
75793;SDS011;64418;47.536;19.074;2023-05-24T03:20:51;8.57;;;5.32;;
75793;SDS011;64418;47.536;19.074;2023-05-24T03:23:17;8.50;;;5.35;;
75793;SDS011;64418;47.536;19.074;2023-05-24T03:25:45;9.70;;;6.18;;
75793;SDS011;64418;47.536;19.074;2023-05-24T03:28:11;12.98;;;6.78;;
75793;SDS011;64418;47.536;19.074;2023-05-24T03:30:37;9.77;;;5.93;;
75793;SDS011;64418;47.536;19.074;2023-05-24T03:33:02;8.88;;;6.32;;
75793;SDS011;64418;47.536;19.074;2023-05-24T03:35:28;10.60;;;6.20;;
75793;SDS011;64418;47.536;19.074;2023-05-24T03:37:54;10.10;;;6.45;;
75793;SDS011;64418;47.536;19.074;2023-05-24T03:40:19;9.23;;;5.90;;
75793;SDS011;64418;47.536;19.074;2023-05-24T03:42:47;11.02;;;6.85;;
75793;SDS011;64418;47.536;19.074;2023-05-24T03:45:13;14.23;;;6.62;;
75793;SDS011;64418;47.536;19.074;2023-05-24T03:47:39;12.30;;;7.00;;
75793;SDS011;64418;47.536;19.074;2023-05-24T03:50:05;8.93;;;6.47;;
75793;SDS011;64418;47.536;19.074;2023-05-24T03:52:31;9.68;;;6.68;;
75793;SDS011;64418;47.536;19.074;2023-05-24T03:54:57;10.73;;;6.77;;
75793;SDS011;64418;47.536;19.074;2023-05-24T03:57:22;10.38;;;7.32;;
75793;SDS011;64418;47.536;19.074;2023-05-24T03:59:50;11.90;;;7.67;;
75793;SDS011;64418;47.536;19.074;2023-05-24T04:02:15;13.50;;;7.43;;
75793;SDS011;64418;47.536;19.074;2023-05-24T04:04:41;11.80;;;8.17;;
75793;SDS011;64418;47.536;19.074;2023-05-24T04:07:07;13.25;;;7.22;;
75793;SDS011;64418;47.536;19.074;2023-05-24T04:09:36;13.20;;;8.25;;
75793;SDS011;64418;47.536;19.074;2023-05-24T04:12:02;10.70;;;6.95;;
75793;SDS011;64418;47.536;19.074;2023-05-24T04:14:28;12.43;;;7.27;;
75793;SDS011;64418;47.536;19.074;2023-05-24T04:16:55;12.50;;;7.75;;
75793;SDS011;64418;47.536;19.074;2023-05-24T04:19:21;12.93;;;7.60;;
75793;SDS011;64418;47.536;19.074;2023-05-24T04:21:46;14.50;;;9.43;;
75793;SDS011;64418;47.536;19.074;2023-05-24T04:24:13;13.83;;;8.10;;
75793;SDS011;64418;47.536;19.074;2023-05-24T04:26:39;17.70;;;8.48;;
75793;SDS011;64418;47.536;19.074;2023-05-24T04:29:05;15.00;;;8.48;;
75793;SDS011;64418;47.536;19.074;2023-05-24T04:31:31;13.43;;;9.20;;
75793;SDS011;64418;47.536;19.074;2023-05-24T04:33:58;14.23;;;9.60;;
75793;SDS011;64418;47.536;19.074;2023-05-24T04:36:24;14.80;;;9.55;;
75793;SDS011;64418;47.536;19.074;2023-05-24T04:38:49;16.50;;;9.23;;
75793;SDS011;64418;47.536;19.074;2023-05-24T04:41:15;17.47;;;9.97;;
75793;SDS011;64418;47.536;19.074;2023-05-24T04:43:41;17.62;;;9.82;;
75793;SDS011;64418;47.536;19.074;2023-05-24T04:46:06;12.97;;;8.33;;
75793;SDS011;64418;47.536;19.074;2023-05-24T04:48:32;15.27;;;9.68;;
75793;SDS011;64418;47.536;19.074;2023-05-24T04:51:00;13.80;;;9.90;;
75793;SDS011;64418;47.536;19.074;2023-05-24T04:53:26;13.83;;;9.50;;
75793;SDS011;64418;47.536;19.074;2023-05-24T04:55:52;15.63;;;10.30;;
75793;SDS011;64418;47.536;19.074;2023-05-24T04:58:18;13.45;;;7.93;;
75793;SDS011;64418;47.536;19.074;2023-05-24T05:00:44;15.88;;;8.80;;
75793;SDS011;64418;47.536;19.074;2023-05-24T05:03:10;13.20;;;9.60;;
75793;SDS011;64418;47.536;19.074;2023-05-24T05:05:36;13.68;;;8.20;;
75793;SDS011;64418;47.536;19.074;2023-05-24T05:08:03;16.95;;;9.57;;
75793;SDS011;64418;47.536;19.074;2023-05-24T05:10:29;14.10;;;8.48;;
75793;SDS011;64418;47.536;19.074;2023-05-24T05:12:55;15.17;;;9.77;;
75793;SDS011;64418;47.536;19.074;2023-05-24T05:15:21;18.77;;;9.18;;
75793;SDS011;64418;47.536;19.074;2023-05-24T05:17:48;15.20;;;10.10;;
75793;SDS011;64418;47.536;19.074;2023-05-24T05:20:14;17.93;;;9.87;;
75793;SDS011;64418;47.536;19.074;2023-05-24T05:22:44;13.93;;;8.85;;
75793;SDS011;64418;47.536;19.074;2023-05-24T05:25:11;13.30;;;9.50;;
75793;SDS011;64418;47.536;19.074;2023-05-24T05:27:37;15.32;;;10.20;;
75793;SDS011;64418;47.536;19.074;2023-05-24T05:30:03;12.43;;;8.50;;
75793;SDS011;64418;47.536;19.074;2023-05-24T05:32:30;15.00;;;10.07;;
75793;SDS011;64418;47.536;19.074;2023-05-24T05:34:56;13.15;;;9.25;;
75793;SDS011;64418;47.536;19.074;2023-05-24T05:37:22;14.38;;;9.10;;
75793;SDS011;64418;47.536;19.074;2023-05-24T05:39:47;20.27;;;10.23;;
75793;SDS011;64418;47.536;19.074;2023-05-24T05:42:15;16.73;;;10.18;;
75793;SDS011;64418;47.536;19.074;2023-05-24T05:44:41;15.20;;;10.23;;
75793;SDS011;64418;47.536;19.074;2023-05-24T05:47:07;13.38;;;8.80;;
75793;SDS011;64418;47.536;19.074;2023-05-24T05:49:36;14.32;;;8.55;;
75793;SDS011;64418;47.536;19.074;2023-05-24T05:52:02;13.65;;;8.80;;
75793;SDS011;64418;47.536;19.074;2023-05-24T05:54:28;12.68;;;8.57;;
75793;SDS011;64418;47.536;19.074;2023-05-24T05:56:54;12.63;;;8.40;;
75793;SDS011;64418;47.536;19.074;2023-05-24T05:59:21;13.90;;;8.47;;
75793;SDS011;64418;47.536;19.074;2023-05-24T06:01:47;14.13;;;8.00;;
75793;SDS011;64418;47.536;19.074;2023-05-24T06:04:13;12.88;;;7.97;;
75793;SDS011;64418;47.536;19.074;2023-05-24T06:06:39;13.43;;;7.65;;
75793;SDS011;64418;47.536;19.074;2023-05-24T06:09:06;11.48;;;8.20;;
75793;SDS011;64418;47.536;19.074;2023-05-24T06:11:51;12.70;;;8.13;;
75793;SDS011;64418;47.536;19.074;2023-05-24T06:14:17;15.23;;;8.48;;
75793;SDS011;64418;47.536;19.074;2023-05-24T06:16:44;13.00;;;8.67;;
75793;SDS011;64418;47.536;19.074;2023-05-24T06:19:10;11.97;;;8.20;;
75793;SDS011;64418;47.536;19.074;2023-05-24T06:21:36;10.38;;;6.90;;
75793;SDS011;64418;47.536;19.074;2023-05-24T06:24:02;12.93;;;8.48;;
75793;SDS011;64418;47.536;19.074;2023-05-24T06:26:28;14.02;;;7.87;;
75793;SDS011;64418;47.536;19.074;2023-05-24T06:28:54;12.03;;;8.10;;
75793;SDS011;64418;47.536;19.074;2023-05-24T06:31:20;10.98;;;7.07;;
75793;SDS011;64418;47.536;19.074;2023-05-24T06:33:47;11.27;;;6.97;;
75793;SDS011;64418;47.536;19.074;2023-05-24T06:36:12;11.88;;;7.22;;
75793;SDS011;64418;47.536;19.074;2023-05-24T06:38:38;10.15;;;7.28;;
75793;SDS011;64418;47.536;19.074;2023-05-24T06:41:04;11.18;;;7.30;;
75793;SDS011;64418;47.536;19.074;2023-05-24T06:43:30;13.60;;;8.10;;
75793;SDS011;64418;47.536;19.074;2023-05-24T06:45:56;11.55;;;7.43;;
75793;SDS011;64418;47.536;19.074;2023-05-24T06:48:22;11.37;;;7.57;;
75793;SDS011;64418;47.536;19.074;2023-05-24T06:50:49;11.30;;;7.60;;
75793;SDS011;64418;47.536;19.074;2023-05-24T06:53:15;12.15;;;8.57;;
75793;SDS011;64418;47.536;19.074;2023-05-24T06:55:41;7.72;;;5.72;;
75793;SDS011;64418;47.536;19.074;2023-05-24T06:58:07;8.57;;;6.90;;
75793;SDS011;64418;47.536;19.074;2023-05-24T07:00:33;13.70;;;8.07;;
75793;SDS011;64418;47.536;19.074;2023-05-24T07:02:59;10.15;;;7.22;;
75793;SDS011;64418;47.536;19.074;2023-05-24T07:05:25;11.40;;;7.53;;
75793;SDS011;64418;47.536;19.074;2023-05-24T07:07:52;11.97;;;7.20;;
75793;SDS011;64418;47.536;19.074;2023-05-24T07:10:18;9.55;;;7.12;;
75793;SDS011;64418;47.536;19.074;2023-05-24T07:12:44;9.98;;;7.35;;
75793;SDS011;64418;47.536;19.074;2023-05-24T07:15:09;11.12;;;7.57;;
75793;SDS011;64418;47.536;19.074;2023-05-24T07:17:35;10.93;;;7.17;;
75793;SDS011;64418;47.536;19.074;2023-05-24T07:20:01;10.98;;;7.37;;
75793;SDS011;64418;47.536;19.074;2023-05-24T07:22:27;11.68;;;7.75;;
75793;SDS011;64418;47.536;19.074;2023-05-24T07:24:54;10.37;;;7.27;;
75793;SDS011;64418;47.536;19.074;2023-05-24T07:27:20;9.77;;;7.45;;
75793;SDS011;64418;47.536;19.074;2023-05-24T07:29:46;11.02;;;7.47;;
75793;SDS011;64418;47.536;19.074;2023-05-24T07:32:12;12.33;;;7.73;;
75793;SDS011;64418;47.536;19.074;2023-05-24T07:34:37;12.43;;;8.00;;
75793;SDS011;64418;47.536;19.074;2023-05-24T07:37:03;10.27;;;7.70;;
75793;SDS011;64418;47.536;19.074;2023-05-24T07:39:29;12.00;;;7.43;;
75793;SDS011;64418;47.536;19.074;2023-05-24T07:42:03;11.88;;;7.97;;
75793;SDS011;64418;47.536;19.074;2023-05-24T07:44:28;9.45;;;7.45;;
75793;SDS011;64418;47.536;19.074;2023-05-24T07:46:54;11.03;;;7.43;;
75793;SDS011;64418;47.536;19.074;2023-05-24T07:49:20;11.65;;;7.53;;
75793;SDS011;64418;47.536;19.074;2023-05-24T07:51:46;12.25;;;7.20;;
75793;SDS011;64418;47.536;19.074;2023-05-24T07:54:12;9.67;;;7.07;;
75793;SDS011;64418;47.536;19.074;2023-05-24T07:56:40;9.52;;;7.12;;
75793;SDS011;64418;47.536;19.074;2023-05-24T07:59:08;9.35;;;7.05;;
75793;SDS011;64418;47.536;19.074;2023-05-24T08:01:33;11.30;;;7.60;;
75793;SDS011;64418;47.536;19.074;2023-05-24T08:03:59;10.32;;;8.35;;
75793;SDS011;64418;47.536;19.074;2023-05-24T08:06:25;9.90;;;7.43;;
75793;SDS011;64418;47.536;19.074;2023-05-24T08:08:52;10.30;;;7.78;;
75793;SDS011;64418;47.536;19.074;2023-05-24T08:11:18;12.65;;;7.95;;
75793;SDS011;64418;47.536;19.074;2023-05-24T08:13:44;9.35;;;7.55;;
75793;SDS011;64418;47.536;19.074;2023-05-24T08:16:11;13.60;;;7.60;;
75793;SDS011;64418;47.536;19.074;2023-05-24T08:18:37;11.35;;;7.00;;
75793;SDS011;64418;47.536;19.074;2023-05-24T08:21:06;9.43;;;7.68;;
75793;SDS011;64418;47.536;19.074;2023-05-24T08:23:32;11.95;;;7.37;;
75793;SDS011;64418;47.536;19.074;2023-05-24T08:25:58;13.97;;;7.53;;
75793;SDS011;64418;47.536;19.074;2023-05-24T08:28:24;9.13;;;7.37;;
75793;SDS011;64418;47.536;19.074;2023-05-24T08:30:50;9.73;;;7.32;;
75793;SDS011;64418;47.536;19.074;2023-05-24T08:33:18;9.27;;;7.47;;
75793;SDS011;64418;47.536;19.074;2023-05-24T08:35:43;8.07;;;6.33;;
75793;SDS011;64418;47.536;19.074;2023-05-24T08:38:10;13.23;;;7.00;;
75793;SDS011;64418;47.536;19.074;2023-05-24T08:40:36;11.35;;;6.72;;
75793;SDS011;64418;47.536;19.074;2023-05-24T08:43:02;7.53;;;5.78;;
75793;SDS011;64418;47.536;19.074;2023-05-24T08:45:31;10.60;;;5.93;;
75793;SDS011;64418;47.536;19.074;2023-05-24T08:48:01;8.07;;;6.00;;
75793;SDS011;64418;47.536;19.074;2023-05-24T08:50:29;9.77;;;5.95;;
75793;SDS011;64418;47.536;19.074;2023-05-24T08:52:55;7.50;;;6.07;;
75793;SDS011;64418;47.536;19.074;2023-05-24T08:55:23;7.40;;;5.53;;
75793;SDS011;64418;47.536;19.074;2023-05-24T08:57:49;8.88;;;5.87;;
75793;SDS011;64418;47.536;19.074;2023-05-24T09:00:16;6.90;;;5.17;;
75793;SDS011;64418;47.536;19.074;2023-05-24T09:02:43;7.28;;;4.93;;
75793;SDS011;64418;47.536;19.074;2023-05-24T09:05:11;7.25;;;5.28;;
75793;SDS011;64418;47.536;19.074;2023-05-24T09:07:39;6.37;;;5.03;;
75793;SDS011;64418;47.536;19.074;2023-05-24T09:10:08;6.28;;;5.20;;
75793;SDS011;64418;47.536;19.074;2023-05-24T09:12:35;9.20;;;5.60;;
75793;SDS011;64418;47.536;19.074;2023-05-24T09:15:02;7.97;;;4.75;;
75793;SDS011;64418;47.536;19.074;2023-05-24T09:17:29;9.77;;;5.93;;
75793;SDS011;64418;47.536;19.074;2023-05-24T09:19:56;8.88;;;5.30;;
75793;SDS011;64418;47.536;19.074;2023-05-24T09:22:23;6.10;;;4.82;;
75793;SDS011;64418;47.536;19.074;2023-05-24T09:24:52;6.30;;;4.23;;
75793;SDS011;64418;47.536;19.074;2023-05-24T09:27:22;6.82;;;5.05;;
75793;SDS011;64418;47.536;19.074;2023-05-24T09:29:47;6.95;;;4.60;;
75793;SDS011;64418;47.536;19.074;2023-05-24T09:32:14;7.15;;;4.75;;
75793;SDS011;64418;47.536;19.074;2023-05-24T09:34:41;6.30;;;4.40;;
75793;SDS011;64418;47.536;19.074;2023-05-24T09:37:09;6.65;;;4.62;;
75793;SDS011;64418;47.536;19.074;2023-05-24T09:39:35;6.55;;;4.25;;
75793;SDS011;64418;47.536;19.074;2023-05-24T09:42:03;5.72;;;4.47;;
75793;SDS011;64418;47.536;19.074;2023-05-24T09:44:29;5.60;;;4.60;;
75793;SDS011;64418;47.536;19.074;2023-05-24T09:46:59;5.70;;;4.33;;
75793;SDS011;64418;47.536;19.074;2023-05-24T09:49:27;7.22;;;4.90;;
75793;SDS011;64418;47.536;19.074;2023-05-24T09:51:53;6.47;;;4.70;;
75793;SDS011;64418;47.536;19.074;2023-05-24T09:54:19;5.95;;;4.47;;
75793;SDS011;64418;47.536;19.074;2023-05-24T09:56:45;8.00;;;5.00;;
75793;SDS011;64418;47.536;19.074;2023-05-24T09:59:12;5.62;;;4.82;;
75793;SDS011;64418;47.536;19.074;2023-05-24T10:01:38;5.82;;;4.87;;
75793;SDS011;64418;47.536;19.074;2023-05-24T10:04:04;7.00;;;4.07;;
75793;SDS011;64418;47.536;19.074;2023-05-24T10:06:32;7.35;;;4.55;;
75793;SDS011;64418;47.536;19.074;2023-05-24T10:09:00;11.40;;;5.28;;
75793;SDS011;64418;47.536;19.074;2023-05-24T10:11:27;8.18;;;4.25;;
75793;SDS011;64418;47.536;19.074;2023-05-24T10:13:53;9.27;;;4.57;;
75793;SDS011;64418;47.536;19.074;2023-05-24T10:16:21;4.87;;;4.30;;
75793;SDS011;64418;47.536;19.074;2023-05-24T10:18:47;4.70;;;4.20;;
75793;SDS011;64418;47.536;19.074;2023-05-24T10:21:14;5.87;;;4.78;;
75793;SDS011;64418;47.536;19.074;2023-05-24T10:23:45;8.95;;;4.82;;
75793;SDS011;64418;47.536;19.074;2023-05-24T10:26:16;5.32;;;3.75;;
75793;SDS011;64418;47.536;19.074;2023-05-24T10:28:44;5.53;;;4.13;;
75793;SDS011;64418;47.536;19.074;2023-05-24T10:31:14;5.40;;;4.30;;
75793;SDS011;64418;47.536;19.074;2023-05-24T10:33:43;6.80;;;3.95;;
75793;SDS011;64418;47.536;19.074;2023-05-24T10:36:11;5.22;;;3.67;;
75793;SDS011;64418;47.536;19.074;2023-05-24T10:38:38;5.15;;;3.80;;
75793;SDS011;64418;47.536;19.074;2023-05-24T10:41:04;5.07;;;3.83;;
75793;SDS011;64418;47.536;19.074;2023-05-24T10:43:30;5.70;;;4.30;;
75793;SDS011;64418;47.536;19.074;2023-05-24T10:45:56;5.65;;;4.00;;
75793;SDS011;64418;47.536;19.074;2023-05-24T10:48:32;5.70;;;4.23;;
75793;SDS011;64418;47.536;19.074;2023-05-24T10:51:02;6.05;;;3.95;;
75793;SDS011;64418;47.536;19.074;2023-05-24T10:53:57;5.68;;;3.80;;
75793;SDS011;64418;47.536;19.074;2023-05-24T10:56:38;9.02;;;4.35;;
75793;SDS011;64418;47.536;19.074;2023-05-24T10:59:08;4.27;;;3.40;;
75793;SDS011;64418;47.536;19.074;2023-05-24T11:01:53;4.47;;;3.70;;
75793;SDS011;64418;47.536;19.074;2023-05-24T11:04:20;4.50;;;3.62;;
75793;SDS011;64418;47.536;19.074;2023-05-24T11:06:47;7.35;;;4.00;;
75793;SDS011;64418;47.536;19.074;2023-05-24T11:09:14;5.35;;;3.58;;
75793;SDS011;64418;47.536;19.074;2023-05-24T11:11:45;7.20;;;3.80;;
75793;SDS011;64418;47.536;19.074;2023-05-24T11:14:11;5.05;;;3.67;;
75793;SDS011;64418;47.536;19.074;2023-05-24T11:16:37;6.05;;;4.10;;
75793;SDS011;64418;47.536;19.074;2023-05-24T11:19:10;6.05;;;4.25;;
75793;SDS011;64418;47.536;19.074;2023-05-24T11:21:36;6.17;;;3.70;;
75793;SDS011;64418;47.536;19.074;2023-05-24T11:24:05;4.75;;;3.70;;
75793;SDS011;64418;47.536;19.074;2023-05-24T11:26:32;7.30;;;4.22;;
75793;SDS011;64418;47.536;19.074;2023-05-24T11:28:59;5.43;;;3.83;;
75793;SDS011;64418;47.536;19.074;2023-05-24T11:31:26;5.47;;;3.78;;
75793;SDS011;64418;47.536;19.074;2023-05-24T11:33:52;6.17;;;4.03;;
75793;SDS011;64418;47.536;19.074;2023-05-24T11:36:18;3.97;;;3.42;;
75793;SDS011;64418;47.536;19.074;2023-05-24T11:38:45;5.25;;;3.72;;
75793;SDS011;64418;47.536;19.074;2023-05-24T11:41:13;4.53;;;3.50;;
75793;SDS011;64418;47.536;19.074;2023-05-24T11:43:40;5.15;;;3.67;;
75793;SDS011;64418;47.536;19.074;2023-05-24T11:46:06;5.03;;;3.50;;
75793;SDS011;64418;47.536;19.074;2023-05-24T11:48:32;5.68;;;3.28;;
75793;SDS011;64418;47.536;19.074;2023-05-24T11:50:58;4.62;;;3.97;;
75793;SDS011;64418;47.536;19.074;2023-05-24T11:53:24;5.50;;;3.90;;
75793;SDS011;64418;47.536;19.074;2023-05-24T11:55:51;6.83;;;4.07;;
75793;SDS011;64418;47.536;19.074;2023-05-24T11:58:21;4.10;;;3.42;;
75793;SDS011;64418;47.536;19.074;2023-05-24T12:00:48;4.60;;;4.00;;
75793;SDS011;64418;47.536;19.074;2023-05-24T12:03:14;4.70;;;3.55;;
75793;SDS011;64418;47.536;19.074;2023-05-24T12:05:40;5.30;;;3.70;;
75793;SDS011;64418;47.536;19.074;2023-05-24T12:08:07;5.63;;;3.73;;
75793;SDS011;64418;47.536;19.074;2023-05-24T12:10:34;5.87;;;4.05;;
75793;SDS011;64418;47.536;19.074;2023-05-24T12:13:00;3.62;;;3.33;;
75793;SDS011;64418;47.536;19.074;2023-05-24T12:15:28;3.80;;;3.40;;
75793;SDS011;64418;47.536;19.074;2023-05-24T12:17:54;6.53;;;4.00;;
75793;SDS011;64418;47.536;19.074;2023-05-24T12:20:21;5.20;;;3.40;;
75793;SDS011;64418;47.536;19.074;2023-05-24T12:22:47;4.03;;;3.55;;
75793;SDS011;64418;47.536;19.074;2023-05-24T12:25:13;4.95;;;3.45;;
75793;SDS011;64418;47.536;19.074;2023-05-24T12:27:42;4.68;;;3.83;;
75793;SDS011;64418;47.536;19.074;2023-05-24T12:30:09;8.00;;;3.53;;
75793;SDS011;64418;47.536;19.074;2023-05-24T12:32:38;5.53;;;3.28;;
75793;SDS011;64418;47.536;19.074;2023-05-24T12:35:04;5.95;;;3.80;;
75793;SDS011;64418;47.536;19.074;2023-05-24T12:37:30;3.92;;;3.30;;
75793;SDS011;64418;47.536;19.074;2023-05-24T12:39:56;5.87;;;3.85;;
75793;SDS011;64418;47.536;19.074;2023-05-24T12:42:25;5.93;;;3.70;;
75793;SDS011;64418;47.536;19.074;2023-05-24T12:44:51;4.30;;;3.37;;
75793;SDS011;64418;47.536;19.074;2023-05-24T12:47:16;3.85;;;3.42;;
75793;SDS011;64418;47.536;19.074;2023-05-24T12:49:44;5.53;;;3.40;;
75793;SDS011;64418;47.536;19.074;2023-05-24T12:52:09;4.15;;;3.33;;
75793;SDS011;64418;47.536;19.074;2023-05-24T12:54:35;6.05;;;3.50;;
75793;SDS011;64418;47.536;19.074;2023-05-24T12:57:01;4.47;;;3.60;;
75793;SDS011;64418;47.536;19.074;2023-05-24T12:59:27;5.93;;;3.60;;
75793;SDS011;64418;47.536;19.074;2023-05-24T13:01:53;5.60;;;3.40;;
75793;SDS011;64418;47.536;19.074;2023-05-24T13:04:20;4.28;;;3.70;;
75793;SDS011;64418;47.536;19.074;2023-05-24T13:06:49;5.57;;;3.30;;
75793;SDS011;64418;47.536;19.074;2023-05-24T13:09:15;5.13;;;3.57;;
75793;SDS011;64418;47.536;19.074;2023-05-24T13:11:41;3.95;;;3.30;;
75793;SDS011;64418;47.536;19.074;2023-05-24T13:14:07;5.32;;;4.03;;
75793;SDS011;64418;47.536;19.074;2023-05-24T13:16:33;3.90;;;3.08;;
75793;SDS011;64418;47.536;19.074;2023-05-24T13:18:59;4.50;;;3.53;;
75793;SDS011;64418;47.536;19.074;2023-05-24T13:21:25;4.85;;;3.37;;
75793;SDS011;64418;47.536;19.074;2023-05-24T13:23:53;3.80;;;3.40;;
75793;SDS011;64418;47.536;19.074;2023-05-24T13:26:18;5.45;;;3.30;;
75793;SDS011;64418;47.536;19.074;2023-05-24T13:28:44;5.10;;;3.40;;
75793;SDS011;64418;47.536;19.074;2023-05-24T13:31:10;4.80;;;3.50;;
75793;SDS011;64418;47.536;19.074;2023-05-24T13:33:36;5.12;;;3.37;;
75793;SDS011;64418;47.536;19.074;2023-05-24T13:36:02;4.10;;;3.37;;
75793;SDS011;64418;47.536;19.074;2023-05-24T13:38:28;4.32;;;3.72;;
75793;SDS011;64418;47.536;19.074;2023-05-24T13:40:55;4.05;;;3.50;;
75793;SDS011;64418;47.536;19.074;2023-05-24T13:43:21;5.18;;;3.60;;
75793;SDS011;64418;47.536;19.074;2023-05-24T13:45:47;3.40;;;2.80;;
75793;SDS011;64418;47.536;19.074;2023-05-24T13:48:13;5.57;;;3.20;;
75793;SDS011;64418;47.536;19.074;2023-05-24T13:50:39;4.80;;;3.03;;
75793;SDS011;64418;47.536;19.074;2023-05-24T13:53:05;3.30;;;2.87;;
75793;SDS011;64418;47.536;19.074;2023-05-24T13:55:32;4.93;;;3.03;;
75793;SDS011;64418;47.536;19.074;2023-05-24T13:58:00;4.85;;;2.87;;
75793;SDS011;64418;47.536;19.074;2023-05-24T14:00:26;3.58;;;3.00;;
75793;SDS011;64418;47.536;19.074;2023-05-24T14:02:52;5.70;;;3.10;;
75793;SDS011;64418;47.536;19.074;2023-05-24T14:05:19;4.30;;;2.78;;
75793;SDS011;64418;47.536;19.074;2023-05-24T14:07:45;5.80;;;3.25;;
75793;SDS011;64418;47.536;19.074;2023-05-24T14:10:11;5.05;;;3.28;;
75793;SDS011;64418;47.536;19.074;2023-05-24T14:12:37;3.87;;;3.00;;
75793;SDS011;64418;47.536;19.074;2023-05-24T14:15:05;5.80;;;3.10;;
75793;SDS011;64418;47.536;19.074;2023-05-24T14:17:32;5.30;;;3.40;;
75793;SDS011;64418;47.536;19.074;2023-05-24T14:19:57;4.07;;;3.17;;
75793;SDS011;64418;47.536;19.074;2023-05-24T14:22:23;5.77;;;3.60;;
75793;SDS011;64418;47.536;19.074;2023-05-24T14:24:49;4.32;;;3.03;;
75793;SDS011;64418;47.536;19.074;2023-05-24T14:27:15;4.43;;;3.17;;
75793;SDS011;64418;47.536;19.074;2023-05-24T14:29:40;3.53;;;3.00;;